createdAt,value
2023-04-18T00:00:01.266Z,99588.28
2023-04-18T00:03:15.897Z,99589.38
2023-04-18T00:06:22.276Z,99589.78
2023-04-18T00:09:25.750Z,99584.69
2023-04-18T00:12:29.346Z,99584.56
2023-04-18T00:15:35.675Z,99585.03
2023-04-18T00:18:40.098Z,99580.34
2023-04-18T00:21:45.113Z,99575.22
2023-04-18T00:24:49.217Z,99578.09
2023-04-18T00:27:52.560Z,99583.22
2023-04-18T00:30:56.101Z,99589.84
2023-04-18T00:34:00.296Z,99585.09
2023-04-18T00:37:05.168Z,99590.94
2023-04-18T00:40:09.618Z,99587.25
2023-04-18T00:43:16.329Z,99578.53
2023-04-18T00:46:20.074Z,99578.13
2023-04-18T00:49:25.465Z,99582.31
2023-04-18T00:52:30.773Z,99579.03
2023-04-18T00:55:35.338Z,99575.66
2023-04-18T00:58:41.044Z,99582.31
2023-04-18T01:01:45.349Z,99579.19
2023-04-18T01:04:49.224Z,99575.22
2023-04-18T01:07:58.778Z,99567.50
2023-04-18T01:11:05.394Z,99575.50
2023-04-18T01:14:09.899Z,99575.75
2023-04-18T01:17:13.576Z,99575.59
2023-04-18T01:20:17.395Z,99577.78
2023-04-18T01:23:22.646Z,99577.75
2023-04-18T01:26:27.868Z,99577.16
2023-04-18T01:29:32.388Z,99570.72
2023-04-18T01:32:35.888Z,99569.34
2023-04-18T01:35:39.360Z,99575.47
2023-04-18T01:38:42.887Z,99574.66
2023-04-18T01:41:48.005Z,99568.50
2023-04-18T01:44:53.744Z,99569.44
2023-04-18T01:47:57.193Z,99566.19
2023-04-18T01:51:00.752Z,99577.31
2023-04-18T01:54:04.200Z,99578.16
2023-04-18T01:57:09.215Z,99568.06
2023-04-18T02:00:13.772Z,99569.31
2023-04-18T02:03:20.299Z,99575.94
2023-04-18T02:06:23.960Z,99573.53
2023-04-18T02:09:27.463Z,99566.72
2023-04-18T02:12:34.580Z,99571.72
2023-04-18T02:15:38.103Z,99570.06
2023-04-18T02:18:44.732Z,99572.34
2023-04-18T02:21:50.388Z,99569.53
2023-04-18T02:24:53.877Z,99573.97
2023-04-18T02:27:59.562Z,99581.47
2023-04-18T02:31:02.913Z,99575.84
2023-04-18T02:34:06.719Z,99573.44
2023-04-18T02:37:10.183Z,99571.41
2023-04-18T02:40:16.224Z,99571.94
2023-04-18T02:43:21.272Z,99568.75
2023-04-18T02:46:24.900Z,99568.22
2023-04-18T02:49:29.124Z,99573.53
2023-04-18T02:52:33.843Z,99568.34
2023-04-18T02:55:38.516Z,99568.44
2023-04-18T02:58:43.709Z,99563.31
2023-04-18T03:02:07.469Z,99566.34
2023-04-18T03:05:13.936Z,99576.25
2023-04-18T03:08:18.955Z,99575.72
2023-04-18T03:11:22.986Z,99578.25
2023-04-18T03:14:28.178Z,99572.97
2023-04-18T03:17:33.235Z,99579.97
2023-04-18T03:20:37.816Z,99574.38
2023-04-18T03:23:43.432Z,99580.63
2023-04-18T03:26:47.945Z,99581.78
2023-04-18T03:29:54.917Z,99578.28
2023-04-18T03:32:59.737Z,99588.56
2023-04-18T03:36:03.791Z,99585.53
2023-04-18T03:39:07.632Z,99585.38
2023-04-18T03:42:11.507Z,99584.34
2023-04-18T03:45:17.944Z,99582.53
2023-04-18T03:48:23.392Z,99585.53
2023-04-18T03:51:27.676Z,99583.03
2023-04-18T03:54:31.144Z,99579.44
2023-04-18T03:57:34.818Z,99581.00
2023-04-18T04:00:42.274Z,99579.66
2023-04-18T04:03:47.942Z,99586.22
2023-04-18T04:06:52.795Z,99586.84
2023-04-18T04:09:56.682Z,99593.09
2023-04-18T04:13:00.225Z,99600.22
2023-04-18T04:16:06.933Z,99612.41
2023-04-18T04:19:10.598Z,99610.44
2023-04-18T04:22:19.840Z,99616.94
2023-04-18T04:25:25.149Z,99612.00
2023-04-18T04:28:31.756Z,99618.63
2023-04-18T04:31:41.663Z,99620.34
2023-04-18T04:34:46.645Z,99619.41
2023-04-18T04:37:50.802Z,99626.31
2023-04-18T04:41:04.540Z,99629.28
2023-04-18T04:44:08.157Z,99631.16
2023-04-18T04:47:12.994Z,99632.94
2023-04-18T04:50:17.012Z,99639.75
2023-04-18T04:53:20.461Z,99638.16
2023-04-18T04:56:24.954Z,99638.81
2023-04-18T04:59:28.731Z,99643.94
2023-04-18T05:02:33.611Z,99650.63
2023-04-18T05:05:37.298Z,99652.81
2023-04-18T05:08:40.718Z,99651.75
2023-04-18T05:11:44.013Z,99654.63
2023-04-18T05:14:47.442Z,99660.84
2023-04-18T05:17:52.246Z,99650.97
2023-04-18T05:20:56.067Z,99654.47
2023-04-18T05:23:59.396Z,99658.91
2023-04-18T05:27:03.036Z,99654.31
2023-04-18T05:30:07.695Z,99659.31
2023-04-18T05:33:12.596Z,99665.59
2023-04-18T05:36:16.375Z,99672.94
2023-04-18T05:39:19.731Z,99670.53
2023-04-18T05:42:23.266Z,99669.22
2023-04-18T05:45:26.569Z,99671.59
2023-04-18T05:48:31.361Z,99671.94
2023-04-18T05:51:34.848Z,99675.38
2023-04-18T05:54:38.282Z,99670.41
2023-04-18T05:57:41.728Z,99672.31
2023-04-18T06:00:45.186Z,99672.50
2023-04-18T06:03:50.083Z,99674.97
2023-04-18T06:06:53.869Z,99681.06
2023-04-18T06:09:57.303Z,99684.84
2023-04-18T06:13:00.670Z,99687.59
2023-04-18T06:16:04.480Z,99684.41
2023-04-18T06:19:10.256Z,99680.06
2023-04-18T06:22:13.647Z,99687.84
2023-04-18T06:25:17.084Z,99697.34
2023-04-18T06:28:20.402Z,99700.00
2023-04-18T06:31:23.726Z,99700.31
2023-04-18T06:34:28.600Z,99705.69
2023-04-18T06:37:32.087Z,99706.78
2023-04-18T06:40:35.566Z,99706.63
2023-04-18T06:43:39.987Z,99708.03
2023-04-18T06:46:46.389Z,99716.13
2023-04-18T06:49:51.171Z,99711.16
2023-04-18T06:52:54.728Z,99706.09
2023-04-18T06:55:58.387Z,99715.41
2023-04-18T06:59:01.746Z,99713.66
2023-04-18T07:02:05.205Z,99719.78
2023-04-18T07:05:10.958Z,99714.91
2023-04-18T07:08:14.510Z,99717.59
2023-04-18T07:11:18.718Z,99724.75
2023-04-18T07:14:24.456Z,99731.59
2023-04-18T07:17:28.614Z,99736.13
2023-04-18T07:20:33.447Z,99735.81
2023-04-18T07:23:37.715Z,99730.69
2023-04-18T07:26:41.370Z,99726.78
2023-04-18T07:29:44.776Z,99733.31
2023-04-18T07:32:48.855Z,99733.66
2023-04-18T07:35:53.781Z,99732.06
2023-04-18T07:38:57.127Z,99733.97
2023-04-18T07:42:00.544Z,99737.53
2023-04-18T07:45:04.237Z,99730.16
2023-04-18T07:48:08.036Z,99743.94
2023-04-18T07:51:13.262Z,99743.84
2023-04-18T07:54:16.852Z,99743.63
2023-04-18T07:57:20.612Z,99744.66
2023-04-18T08:00:24.400Z,99738.38
2023-04-18T08:03:29.908Z,99747.38
2023-04-18T08:06:35.945Z,99744.34
2023-04-18T08:09:39.476Z,99743.06
2023-04-18T08:12:43.345Z,99752.72
2023-04-18T08:15:47.593Z,99752.94
2023-04-18T08:18:51.266Z,99756.94
2023-04-18T08:21:56.130Z,99756.66
2023-04-18T08:25:05.026Z,99743.28
2023-04-18T08:28:09.747Z,99749.66
2023-04-18T08:31:14.474Z,99751.69
2023-04-18T08:34:18.097Z,99750.16
2023-04-18T08:37:23.218Z,99747.00
2023-04-18T08:40:26.870Z,99760.69
2023-04-18T08:43:31.421Z,99760.25
2023-04-18T08:46:35.906Z,99757.00
2023-04-18T08:49:40.041Z,99756.91
2023-04-18T08:52:49.436Z,99751.00
2023-04-18T08:55:55.328Z,99749.69
2023-04-18T08:59:00.410Z,99757.34
2023-04-18T09:02:05.560Z,99752.50
2023-04-18T09:05:14.494Z,99752.97
2023-04-18T09:08:25.650Z,99756.81
2023-04-18T09:11:31.816Z,99751.28
2023-04-18T09:14:37.422Z,99749.56
2023-04-18T09:17:43.654Z,99751.25
2023-04-18T09:20:48.999Z,99763.16
2023-04-18T09:24:17.670Z,99753.53
2023-04-18T09:27:23.191Z,99753.66
2023-04-18T09:30:47.695Z,99759.59
2023-04-18T09:33:54.350Z,99760.25
2023-04-18T09:37:09.275Z,99761.44
2023-04-18T09:40:20.409Z,99764.06
2023-04-18T09:43:24.149Z,99769.16
2023-04-18T09:46:28.855Z,99765.91
2023-04-18T09:49:32.495Z,99769.28
2023-04-18T09:52:40.323Z,99767.31
2023-04-18T09:55:46.563Z,99758.41
2023-04-18T09:59:00.115Z,99768.31
2023-04-18T10:02:08.243Z,99763.81
2023-04-18T10:05:14.532Z,99763.16
2023-04-18T10:08:20.012Z,99758.22
2023-04-18T10:11:26.361Z,99763.47
2023-04-18T10:14:34.868Z,99758.22
2023-04-18T10:18:02.588Z,99747.97
2023-04-18T10:21:10.981Z,99751.25
2023-04-18T10:24:53.599Z,99748.41
2023-04-18T10:28:02.385Z,99745.00
2023-04-18T10:31:07.644Z,99742.28
2023-04-18T10:34:18.260Z,99739.91
2023-04-18T10:37:22.100Z,99737.63
2023-04-18T10:40:34.495Z,99735.97
2023-04-18T10:44:14.762Z,99740.34
2023-04-18T10:47:27.875Z,99737.53
2023-04-18T10:50:31.724Z,99740.16
2023-04-18T10:53:35.370Z,99739.03
2023-04-18T10:56:39.677Z,99741.81
2023-04-18T10:59:49.326Z,99742.78
2023-04-18T11:02:56.200Z,99733.31
2023-04-18T11:06:03.286Z,99730.88
2023-04-18T11:09:11.418Z,99731.16
2023-04-18T11:12:14.877Z,99736.63
2023-04-18T11:15:22.610Z,99721.84
2023-04-18T11:18:26.074Z,99724.84
2023-04-18T11:21:33.011Z,99732.41
2023-04-18T11:24:36.823Z,99733.78
2023-04-18T11:27:43.094Z,99729.59
2023-04-18T11:30:48.505Z,99727.16
2023-04-18T11:33:52.060Z,99731.34
2023-04-18T11:36:55.494Z,99723.09
2023-04-18T11:39:59.314Z,99723.56
2023-04-18T11:43:03.682Z,99725.41
2023-04-18T11:46:08.603Z,99723.00
2023-04-18T11:49:26.900Z,99734.28
2023-04-18T11:52:31.403Z,99720.84
2023-04-18T11:55:34.907Z,99718.66
2023-04-18T11:58:38.718Z,99726.06
2023-04-18T12:01:43.944Z,99721.03
2023-04-18T12:04:56.393Z,99729.31
2023-04-18T12:08:08.355Z,99730.41
2023-04-18T12:11:13.921Z,99730.41
2023-04-18T12:14:22.010Z,99722.19
2023-04-18T12:17:30.961Z,99723.34
2023-04-18T12:20:39.479Z,99722.13
2023-04-18T12:23:46.582Z,99718.06
2023-04-18T12:26:50.918Z,99719.31
2023-04-18T12:29:57.419Z,99725.13
2023-04-18T12:33:04.248Z,99717.03
2023-04-18T12:36:10.133Z,99707.19
2023-04-18T12:39:13.728Z,99719.84
2023-04-18T12:42:17.251Z,99715.47
2023-04-18T12:45:22.652Z,99704.22
2023-04-18T12:48:27.646Z,99700.72
2023-04-18T12:51:37.932Z,99708.34
2023-04-18T12:54:41.514Z,99705.78
2023-04-18T12:57:45.519Z,99707.25
2023-04-18T13:00:49.153Z,99704.00
2023-04-18T13:04:08.214Z,99705.41
2023-04-18T13:07:16.261Z,99707.25
2023-04-18T13:10:25.824Z,99701.38
2023-04-18T13:13:29.580Z,99701.56
2023-04-18T13:16:33.254Z,99704.25
2023-04-18T13:19:38.179Z,99699.84
2023-04-18T13:22:43.129Z,99698.50
2023-04-18T13:25:46.897Z,99703.97
2023-04-18T13:28:50.337Z,99695.94
2023-04-18T13:31:54.103Z,99705.00
2023-04-18T13:34:59.318Z,99703.84
2023-04-18T13:38:03.607Z,99705.66
2023-04-18T13:41:12.838Z,99702.13
2023-04-18T13:44:22.484Z,99694.50
2023-04-18T13:47:29.986Z,99693.66
2023-04-18T13:50:35.194Z,99706.84
2023-04-18T13:53:38.921Z,99704.59
2023-04-18T13:56:45.242Z,99701.59
2023-04-18T13:59:48.791Z,99691.75
2023-04-18T14:02:52.714Z,99699.66
2023-04-18T14:06:01.167Z,99697.56
2023-04-18T14:09:07.015Z,99697.63
2023-04-18T14:12:10.790Z,99701.38
2023-04-18T14:15:20.235Z,99708.09
2023-04-18T14:18:27.105Z,99707.84
2023-04-18T14:21:32.444Z,99717.78
2023-04-18T14:24:36.500Z,99717.44
2023-04-18T14:27:40.437Z,99713.28
2023-04-18T14:30:45.299Z,99714.22
2023-04-18T14:33:49.003Z,99712.38
2023-04-18T14:36:54.009Z,99708.78
2023-04-18T14:39:57.647Z,99713.06
2023-04-18T14:43:01.192Z,99707.66
2023-04-18T14:46:05.695Z,99706.78
2023-04-18T14:49:09.377Z,99705.69
2023-04-18T14:52:15.684Z,99703.38
2023-04-18T14:55:21.531Z,99706.53
2023-04-18T14:58:25.370Z,99698.44
2023-04-18T15:01:31.957Z,99700.56
2023-04-18T15:04:35.807Z,99693.94
2023-04-18T15:07:42.975Z,99697.47
2023-04-18T15:10:47.632Z,99699.38
2023-04-18T15:13:51.382Z,99699.50
2023-04-18T15:16:57.251Z,99691.19
2023-04-18T15:20:00.909Z,99696.59
2023-04-18T15:23:05.862Z,99693.81
2023-04-18T15:26:14.389Z,99694.56
2023-04-18T15:29:18.052Z,99693.09
2023-04-18T15:32:23.404Z,99683.91
2023-04-18T15:35:27.219Z,99692.22
2023-04-18T15:38:33.129Z,99694.13
2023-04-18T15:41:38.201Z,99692.31
2023-04-18T15:44:41.635Z,99692.28
2023-04-18T15:47:45.361Z,99691.13
2023-04-18T15:50:52.679Z,99694.19
2023-04-18T15:53:59.229Z,99690.56
2023-04-18T15:57:04.626Z,99688.19
2023-04-18T16:00:14.120Z,99687.91
2023-04-18T16:03:18.324Z,99687.78
2023-04-18T16:06:23.604Z,99690.88
2023-04-18T16:09:28.431Z,99694.38
2023-04-18T16:12:32.294Z,99690.69
2023-04-18T16:15:41.549Z,99694.41
2023-04-18T16:18:47.264Z,99682.41
2023-04-18T16:21:51.452Z,99696.81
2023-04-18T16:24:59.140Z,99692.22
2023-04-18T16:28:04.237Z,99696.41
2023-04-18T16:31:08.827Z,99686.16
2023-04-18T16:34:15.612Z,99694.88
2023-04-18T16:37:19.186Z,99684.44
2023-04-18T16:40:24.435Z,99691.25
2023-04-18T16:43:30.377Z,99688.22
2023-04-18T16:46:33.763Z,99686.88
2023-04-18T16:49:37.667Z,99691.69
2023-04-18T16:52:41.642Z,99697.19
2023-04-18T16:55:50.410Z,99693.66
2023-04-18T16:58:53.839Z,99695.50
2023-04-18T17:01:57.459Z,99688.72
2023-04-18T17:05:03.898Z,99694.31
2023-04-18T17:08:09.243Z,99697.88
2023-04-18T17:11:14.253Z,99692.50
2023-04-18T17:14:18.406Z,99693.00
2023-04-18T17:17:23.672Z,99700.13
2023-04-18T17:20:28.609Z,99694.81
2023-04-18T17:23:33.131Z,99693.22
2023-04-18T17:26:40.128Z,99697.22
2023-04-18T17:29:43.856Z,99706.56
2023-04-18T17:32:47.591Z,99697.47
2023-04-18T17:35:51.334Z,99697.09
2023-04-18T17:38:54.895Z,99696.56
2023-04-18T17:42:00.300Z,99696.25
2023-04-18T17:45:04.972Z,99684.25
2023-04-18T17:48:10.137Z,99687.28
2023-04-18T17:51:16.543Z,99683.81
2023-04-18T17:54:20.468Z,99689.63
2023-04-18T17:57:26.205Z,99689.88
2023-04-18T18:00:31.920Z,99690.72
2023-04-18T18:03:35.673Z,99691.06
2023-04-18T18:06:40.022Z,99700.00
2023-04-18T18:09:43.547Z,99692.50
2023-04-18T18:12:48.806Z,99697.41
2023-04-18T18:15:52.975Z,99698.09
2023-04-18T18:19:04.171Z,99703.09
2023-04-18T18:22:08.609Z,99696.91
2023-04-18T18:25:12.628Z,99694.47
2023-04-18T18:28:17.708Z,99700.75
2023-04-18T18:31:24.897Z,99702.94
2023-04-18T18:34:32.121Z,99700.38
2023-04-18T18:37:36.916Z,99702.13
2023-04-18T18:40:40.500Z,99699.72
2023-04-18T18:43:45.758Z,99703.66
2023-04-18T18:46:49.213Z,99698.88
2023-04-18T18:49:52.723Z,99704.53
2023-04-18T18:52:56.261Z,99699.41
2023-04-18T18:55:59.995Z,99689.13
2023-04-18T18:59:05.185Z,99690.63
2023-04-18T19:02:09.240Z,99693.56
2023-04-18T19:05:20.328Z,99692.53
2023-04-18T19:08:26.904Z,99688.28
2023-04-18T19:11:30.381Z,99687.31
2023-04-18T19:14:35.187Z,99686.84
2023-04-18T19:17:39.145Z,99685.59
2023-04-18T19:20:42.786Z,99683.31
2023-04-18T19:23:46.651Z,99679.34
2023-04-18T19:26:50.142Z,99684.44
2023-04-18T19:29:54.974Z,99671.81
2023-04-18T19:32:58.461Z,99677.16
2023-04-18T19:36:02.345Z,99669.06
2023-04-18T19:39:09.759Z,99675.13
2023-04-18T19:42:13.152Z,99675.72
2023-04-18T19:45:18.306Z,99665.66
2023-04-18T19:48:21.647Z,99667.44
2023-04-18T19:51:25.072Z,99661.28
2023-04-18T19:54:28.864Z,99658.41
2023-04-18T19:57:32.343Z,99663.16
2023-04-18T20:00:40.128Z,99651.19
2023-04-18T20:03:49.403Z,99653.47
2023-04-18T20:06:56.227Z,99650.72
2023-04-18T20:10:00.617Z,99645.31
2023-04-18T20:13:05.358Z,99644.13
2023-04-18T20:16:11.301Z,99648.72
2023-04-18T20:19:15.087Z,99639.31
2023-04-18T20:22:20.125Z,99634.19
2023-04-18T20:25:23.589Z,99637.81
2023-04-18T20:28:27.813Z,99633.13
2023-04-18T20:31:35.133Z,99632.00
2023-04-18T20:34:38.921Z,99638.16
2023-04-18T20:37:42.383Z,99641.13
2023-04-18T20:40:46.875Z,99638.63
2023-04-18T20:43:50.808Z,99625.13
2023-04-18T20:46:55.652Z,99633.53
2023-04-18T20:50:00.375Z,99627.63
2023-04-18T20:53:04.712Z,99629.06
2023-04-18T20:56:08.793Z,99631.69
2023-04-18T20:59:12.227Z,99625.41
2023-04-18T21:02:17.368Z,99632.53
2023-04-18T21:05:20.990Z,99626.25
2023-04-18T21:08:24.573Z,99620.25
2023-04-18T21:11:29.375Z,99625.78
2023-04-18T21:14:33.223Z,99617.22
2023-04-18T21:17:41.293Z,99621.13
2023-04-18T21:20:45.026Z,99616.91
2023-04-18T21:23:48.897Z,99616.56
2023-04-18T21:26:52.572Z,99609.19
2023-04-18T21:29:59.287Z,99605.25
2023-04-18T21:33:06.965Z,99602.50
2023-04-18T21:36:10.786Z,99607.25
2023-04-18T21:39:14.284Z,99599.75
2023-04-18T21:42:17.710Z,99604.72
2023-04-18T21:45:21.207Z,99592.06
2023-04-18T21:48:26.466Z,99595.41
2023-04-18T21:51:30.002Z,99585.72
2023-04-18T21:54:38.132Z,99594.81
2023-04-18T21:57:42.398Z,99586.63
2023-04-18T22:00:46.397Z,99584.34
2023-04-18T22:03:51.514Z,99584.59
2023-04-18T22:06:56.966Z,99578.88
2023-04-18T22:10:00.517Z,99578.00
2023-04-18T22:13:05.452Z,99571.97
2023-04-18T22:16:12.078Z,99563.44
2023-04-18T22:19:21.721Z,99574.72
2023-04-18T22:22:25.916Z,99561.34
2023-04-18T22:25:29.620Z,99566.66
2023-04-18T22:28:34.047Z,99557.84
2023-04-18T22:31:37.562Z,99549.56
2023-04-18T22:34:42.630Z,99550.31
2023-04-18T22:37:46.122Z,99556.31
2023-04-18T22:40:49.539Z,99541.97
2023-04-18T22:43:53.609Z,99539.59
2023-04-18T22:46:57.295Z,99541.78
2023-04-18T22:50:02.304Z,99533.59
2023-04-18T22:53:06.208Z,99545.06
2023-04-18T22:56:09.755Z,99533.50
2023-04-18T22:59:13.152Z,99534.44
2023-04-18T23:02:16.860Z,99519.59
2023-04-18T23:05:22.057Z,99522.22
2023-04-18T23:08:25.542Z,99519.81
2023-04-18T23:11:29.031Z,99516.25
2023-04-18T23:14:34.608Z,99518.88
2023-04-18T23:17:38.332Z,99514.41
2023-04-18T23:20:44.254Z,99505.75
2023-04-18T23:23:50.100Z,99502.25
2023-04-18T23:26:57.365Z,99505.09
2023-04-18T23:30:01.676Z,99494.19
2023-04-18T23:33:06.066Z,99489.78
2023-04-18T23:36:12.769Z,99483.44
2023-04-18T23:39:18.621Z,99477.66
2023-04-18T23:42:22.080Z,99466.66
2023-04-18T23:45:25.597Z,99454.25
2023-04-18T23:48:29.259Z,99459.47
2023-04-18T23:51:34.296Z,99454.22
2023-04-18T23:54:38.122Z,99443.50
2023-04-18T23:57:41.830Z,99443.94
